createdAt,value
2023-03-16T00:01:35.499Z,3.40
2023-03-16T00:04:40.209Z,3.28
2023-03-16T00:07:43.540Z,3.12
2023-03-16T00:10:47.527Z,2.90
2023-03-16T00:14:32.537Z,3.15
2023-03-16T00:17:37.563Z,2.87
2023-03-16T00:20:40.403Z,2.37
2023-03-16T00:23:46.216Z,2.92
2023-03-16T00:26:49.847Z,2.42
2023-03-16T00:29:57.569Z,2.45
2023-03-16T00:33:23.147Z,3.20
2023-03-16T00:36:46.101Z,3.10
2023-03-16T00:39:52.495Z,2.92
2023-03-16T00:43:18.774Z,2.85
2023-03-16T00:46:27.089Z,2.67
2023-03-16T00:49:34.819Z,3.62
2023-03-16T00:52:37.782Z,3.03
2023-03-16T00:55:41.646Z,2.75
2023-03-16T00:58:44.778Z,3.72
2023-03-16T01:01:49.486Z,2.62
2023-03-16T01:04:57.121Z,3.28
2023-03-16T01:08:04.356Z,3.15
2023-03-16T01:11:10.483Z,2.70
2023-03-16T01:14:15.514Z,2.75
2023-03-16T01:17:22.802Z,3.37
2023-03-16T01:20:26.655Z,2.50
2023-03-16T01:23:33.593Z,2.87
2023-03-16T01:26:36.708Z,2.55
2023-03-16T01:29:40.310Z,2.80
2023-03-16T01:33:02.746Z,2.78
2023-03-16T01:36:09.056Z,2.80
2023-03-16T01:39:14.950Z,3.55
2023-03-16T01:42:18.685Z,2.72
2023-03-16T01:46:00.161Z,3.28
2023-03-16T01:49:26.134Z,3.58
2023-03-16T01:52:33.816Z,3.33
2023-03-16T01:55:36.686Z,3.47
2023-03-16T01:59:03.130Z,2.70
2023-03-16T02:02:09.848Z,3.60
2023-03-16T02:05:25.871Z,3.20
2023-03-16T02:08:29.443Z,4.03
2023-03-16T02:11:34.796Z,3.37
2023-03-16T02:14:38.360Z,3.60
2023-03-16T02:17:44.013Z,3.20
2023-03-16T02:21:10.933Z,3.72
2023-03-16T02:24:14.217Z,3.67
2023-03-16T02:27:37.416Z,3.62
2023-03-16T02:30:41.427Z,3.10
2023-03-16T02:33:45.959Z,3.25
2023-03-16T02:36:52.379Z,3.08
2023-03-16T02:39:57.399Z,3.53
2023-03-16T02:43:02.824Z,4.15
2023-03-16T02:46:06.565Z,3.22
2023-03-16T02:49:19.993Z,3.47
2023-03-16T02:52:24.588Z,3.12
2023-03-16T02:55:28.274Z,3.65
2023-03-16T02:58:32.092Z,3.78
2023-03-16T03:01:37.115Z,3.42
2023-03-16T03:04:39.902Z,3.28
2023-03-16T03:07:43.172Z,3.35
2023-03-16T03:10:46.448Z,4.07
2023-03-16T03:13:50.782Z,3.95
2023-03-16T03:17:13.512Z,4.10
2023-03-16T03:20:18.363Z,4.30
2023-03-16T03:23:21.427Z,4.65
2023-03-16T03:26:25.017Z,3.00
2023-03-16T03:29:34.655Z,3.30
2023-03-16T03:32:38.074Z,4.60
2023-03-16T03:35:43.416Z,3.47
2023-03-16T03:38:49.743Z,4.43
2023-03-16T03:41:54.730Z,4.60
2023-03-16T03:44:58.050Z,3.85
2023-03-16T03:48:02.186Z,4.25
2023-03-16T03:51:25.410Z,3.78
2023-03-16T03:54:28.579Z,3.67
2023-03-16T03:57:34.322Z,4.20
2023-03-16T04:00:37.145Z,4.12
2023-03-16T04:03:41.970Z,4.10
2023-03-16T04:06:46.036Z,3.95
2023-03-16T04:09:49.384Z,3.80
2023-03-16T04:13:16.249Z,4.07
2023-03-16T04:16:20.958Z,3.67
2023-03-16T04:19:27.284Z,4.47
2023-03-16T04:22:31.433Z,4.75
2023-03-16T04:25:38.464Z,4.10
2023-03-16T04:28:43.379Z,5.03
2023-03-16T04:31:47.977Z,4.72
2023-03-16T04:34:55.970Z,4.10
2023-03-16T04:37:59.649Z,4.62
2023-03-16T04:41:07.417Z,3.95
2023-03-16T04:44:11.259Z,4.80
2023-03-16T04:47:16.694Z,4.32
2023-03-16T04:50:20.418Z,4.03
2023-03-16T04:53:44.711Z,3.65
2023-03-16T04:56:58.588Z,3.37
2023-03-16T05:00:09.787Z,4.18
2023-03-16T05:06:19.983Z,3.58
2023-03-16T05:09:23.002Z,4.30
2023-03-16T05:12:26.563Z,5.50
2023-03-16T05:15:54.851Z,4.50
2023-03-16T05:18:59.857Z,4.78
2023-03-16T05:22:04.038Z,5.03
2023-03-16T05:25:36.304Z,4.68
2023-03-16T05:28:40.384Z,4.70
2023-03-16T05:31:47.795Z,4.45
2023-03-16T05:34:53.210Z,5.18
2023-03-16T05:38:02.640Z,4.00
2023-03-16T05:41:06.441Z,4.57
2023-03-16T05:44:14.067Z,5.80
2023-03-16T05:47:21.993Z,4.45
2023-03-16T05:50:26.827Z,5.50
2023-03-16T05:53:30.224Z,5.25
2023-03-16T05:56:54.695Z,4.50
2023-03-16T06:00:22.913Z,4.40
2023-03-16T06:03:47.378Z,4.75
2023-03-16T06:06:51.457Z,4.68
2023-03-16T06:09:55.002Z,4.78
2023-03-16T06:13:03.142Z,5.20
2023-03-16T06:16:26.456Z,4.93
2023-03-16T06:19:30.480Z,5.47
2023-03-16T06:22:34.770Z,4.82
2023-03-16T06:25:49.737Z,4.82
2023-03-16T06:29:30.837Z,4.62
2023-03-16T06:32:38.591Z,4.43
2023-03-16T06:35:41.775Z,4.97
2023-03-16T06:38:45.231Z,4.72
2023-03-16T06:41:49.106Z,4.53
2023-03-16T06:44:56.876Z,4.65
2023-03-16T06:48:01.054Z,4.68
2023-03-16T06:51:07.764Z,3.87
2023-03-16T06:54:11.842Z,5.15
2023-03-16T06:57:16.937Z,4.68
2023-03-16T07:00:40.299Z,4.12
2023-03-16T07:03:45.130Z,4.43
2023-03-16T07:06:58.402Z,4.95
2023-03-16T07:10:21.784Z,4.90
2023-03-16T07:13:45.011Z,4.50
2023-03-16T07:16:57.872Z,4.43
2023-03-16T07:20:05.525Z,4.35
2023-03-16T07:23:13.591Z,4.93
2023-03-16T07:26:28.438Z,5.07
2023-03-16T07:29:55.291Z,4.70
2023-03-16T07:33:08.554Z,4.22
2023-03-16T07:36:32.184Z,4.55
2023-03-16T07:40:15.489Z,4.03
2023-03-16T07:43:35.367Z,5.30
2023-03-16T07:46:58.377Z,4.20
2023-03-16T07:50:01.719Z,4.40
2023-03-16T07:53:22.719Z,4.15
2023-03-16T07:56:49.672Z,4.65
2023-03-16T08:00:03.103Z,4.57
2023-03-16T08:03:18.962Z,4.03
2023-03-16T08:10:05.590Z,4.32
2023-03-16T08:13:09.637Z,4.07
2023-03-16T08:16:13.564Z,4.03
2023-03-16T08:19:20.294Z,4.30
2023-03-16T08:22:46.476Z,4.25
2023-03-16T08:25:55.916Z,4.20
2023-03-16T08:29:27.305Z,4.10
2023-03-16T08:32:30.898Z,3.97
2023-03-16T08:35:34.324Z,4.05
2023-03-16T08:38:40.132Z,4.57
2023-03-16T08:41:43.957Z,3.70
2023-03-16T08:45:11.739Z,4.45
2023-03-16T08:48:16.712Z,3.83
2023-03-16T08:51:20.145Z,4.15
2023-03-16T08:54:23.784Z,4.10
2023-03-16T08:57:55.828Z,3.53
2023-03-16T09:01:00.549Z,4.00
2023-03-16T09:04:04.340Z,3.78
2023-03-16T09:07:09.217Z,3.90
2023-03-16T09:10:16.350Z,3.78
2023-03-16T09:13:19.438Z,4.28
2023-03-16T09:16:25.725Z,4.07
2023-03-16T09:19:37.623Z,3.60
2023-03-16T09:22:53.517Z,3.58
2023-03-16T09:26:16.530Z,3.72
2023-03-16T09:29:51.147Z,3.37
2023-03-16T09:33:14.139Z,3.37
2023-03-16T09:36:38.173Z,2.90
2023-03-16T09:40:06.742Z,2.80
2023-03-16T09:44:02.902Z,3.33
2023-03-16T09:47:09.035Z,3.17
2023-03-16T09:50:47.586Z,2.70
2023-03-16T09:53:58.820Z,3.25
2023-03-16T09:57:04.180Z,3.55
2023-03-16T10:01:07.597Z,2.85
2023-03-16T10:04:28.026Z,3.00
2023-03-16T10:07:53.301Z,3.42
2023-03-16T10:11:16.236Z,3.00
2023-03-16T10:15:06.025Z,3.53
2023-03-16T10:18:46.096Z,3.05
2023-03-16T10:22:37.684Z,2.78
2023-03-16T10:26:01.357Z,3.05
2023-03-16T10:29:30.304Z,3.15
2023-03-16T10:32:52.726Z,2.95
2023-03-16T10:36:27.488Z,2.87
2023-03-16T10:39:43.430Z,3.33
2023-03-16T10:42:55.959Z,3.20
2023-03-16T10:46:14.810Z,2.87
2023-03-16T10:49:56.228Z,2.28
2023-03-16T10:53:23.700Z,4.03
2023-03-16T10:56:27.563Z,3.22
2023-03-16T10:59:39.296Z,3.10
2023-03-16T11:03:29.480Z,2.97
2023-03-16T11:06:55.700Z,3.05
2023-03-16T11:10:45.993Z,2.30
2023-03-16T11:14:00.509Z,2.70
2023-03-16T11:17:38.257Z,2.70
2023-03-16T11:21:32.087Z,3.08
2023-03-16T11:25:00.976Z,2.70
2023-03-16T11:28:12.184Z,2.30
2023-03-16T11:31:39.445Z,3.53
2023-03-16T11:34:44.510Z,2.60
2023-03-16T11:38:11.127Z,3.00
2023-03-16T11:42:16.182Z,2.20
2023-03-16T11:45:40.181Z,2.30
2023-03-16T11:49:00.608Z,2.17
2023-03-16T11:52:42.677Z,2.70
2023-03-16T11:56:23.877Z,2.10
2023-03-16T12:00:06.110Z,2.25
2023-03-16T12:25:39.647Z,2.40
2023-03-16T12:28:44.020Z,1.92
2023-03-16T12:32:25.981Z,2.35
2023-03-16T12:36:06.389Z,2.30
2023-03-16T12:39:28.713Z,2.00
2023-03-16T12:43:03.315Z,1.95
2023-03-16T12:46:41.847Z,1.83
2023-03-16T12:50:15.337Z,2.30
2023-03-16T12:53:53.601Z,1.87
2023-03-16T12:57:07.198Z,1.90
2023-03-16T13:00:19.821Z,1.98
2023-03-16T13:03:41.353Z,2.20
2023-03-16T13:06:52.392Z,2.23
2023-03-16T13:10:04.395Z,2.05
2023-03-16T13:13:25.532Z,2.10
2023-03-16T13:16:49.729Z,1.90
2023-03-16T13:20:06.541Z,1.60
2023-03-16T13:23:24.156Z,1.80
2023-03-16T13:26:53.648Z,1.90
2023-03-16T13:30:18.348Z,2.00
2023-03-16T13:33:26.275Z,2.17
2023-03-16T13:36:31.900Z,1.70
2023-03-16T13:39:34.648Z,2.10
2023-03-16T13:42:49.897Z,1.67
2023-03-16T13:46:18.120Z,2.33
2023-03-16T13:49:55.199Z,1.90
2023-03-16T13:53:40.412Z,1.70
2023-03-16T13:56:49.040Z,1.67
2023-03-16T14:00:25.633Z,3.12
2023-03-16T14:03:37.046Z,2.10
2023-03-16T14:07:21.385Z,1.62
2023-03-16T14:10:45.492Z,1.90
2023-03-16T14:14:24.269Z,1.60
2023-03-16T14:17:28.555Z,2.05
2023-03-16T14:20:33.154Z,1.58
2023-03-16T14:23:43.449Z,2.33
2023-03-16T14:27:22.486Z,1.87
2023-03-16T14:30:28.482Z,1.87
2023-03-16T14:33:32.701Z,1.85
2023-03-16T14:36:38.257Z,1.73
2023-03-16T14:39:41.316Z,1.95
2023-03-16T14:42:44.691Z,1.85
2023-03-16T14:45:47.944Z,2.08
2023-03-16T14:48:51.148Z,1.90
2023-03-16T14:52:26.341Z,2.20
2023-03-16T14:55:30.419Z,1.90
2023-03-16T14:58:34.912Z,2.25
2023-03-16T15:01:39.452Z,2.10
2023-03-16T15:05:03.043Z,2.08
2023-03-16T15:08:32.129Z,2.10
2023-03-16T15:11:55.691Z,1.95
2023-03-16T15:15:17.474Z,2.45
2023-03-16T15:18:20.462Z,1.90
2023-03-16T15:21:33.575Z,1.98
2023-03-16T15:24:56.590Z,2.08
2023-03-16T15:28:17.568Z,2.03
2023-03-16T15:31:40.888Z,2.35
2023-03-16T15:34:53.220Z,2.20
2023-03-16T15:37:58.320Z,2.30
2023-03-16T15:41:03.744Z,2.42
2023-03-16T15:44:13.162Z,2.20
2023-03-16T15:47:19.065Z,2.55
2023-03-16T15:50:32.343Z,2.30
2023-03-16T15:53:40.532Z,2.50
2023-03-16T15:56:53.838Z,2.28
2023-03-16T16:00:00.212Z,2.05
2023-03-16T16:03:11.859Z,1.70
2023-03-16T16:06:38.382Z,1.92
2023-03-16T16:09:41.917Z,2.10
2023-03-16T16:12:51.465Z,2.28
2023-03-16T16:15:56.262Z,2.08
2023-03-16T16:19:00.812Z,3.10
2023-03-16T16:22:44.074Z,3.10
2023-03-16T16:25:47.634Z,2.60
2023-03-16T16:28:53.049Z,2.95
2023-03-16T16:31:57.388Z,2.60
2023-03-16T16:35:04.660Z,2.90
2023-03-16T16:38:09.074Z,3.20
2023-03-16T16:41:28.455Z,2.75
2023-03-16T16:45:00.804Z,3.28
2023-03-16T16:48:29.080Z,4.07
2023-03-16T16:51:33.232Z,3.60
2023-03-16T16:54:55.873Z,3.87
2023-03-16T16:58:00.106Z,3.10
2023-03-16T17:01:06.349Z,2.90
2023-03-16T17:04:16.750Z,3.42
2023-03-16T17:07:19.587Z,3.03
2023-03-16T17:10:26.071Z,2.72
2023-03-16T17:13:40.615Z,3.30
2023-03-16T17:16:44.811Z,4.53
2023-03-16T17:19:48.590Z,5.30
2023-03-16T17:22:52.708Z,4.03
2023-03-16T17:25:58.509Z,3.25
2023-03-16T17:29:23.295Z,3.50
2023-03-16T17:32:46.120Z,3.90
2023-03-16T17:35:49.248Z,3.03
2023-03-16T17:38:52.148Z,3.42
2023-03-16T17:42:03.061Z,3.55
2023-03-16T17:45:14.757Z,3.37
2023-03-16T17:48:24.126Z,3.58
2023-03-16T17:51:28.077Z,3.83
2023-03-16T17:54:31.579Z,4.15
2023-03-16T17:57:35.387Z,4.07
2023-03-16T18:00:39.613Z,5.15
2023-03-16T18:03:46.409Z,4.15
2023-03-16T18:06:51.211Z,7.25
2023-03-16T18:09:54.480Z,6.55
2023-03-16T18:13:08.948Z,5.15
2023-03-16T18:16:18.035Z,5.22
2023-03-16T18:19:25.403Z,5.18
2023-03-16T18:22:28.894Z,4.90
2023-03-16T18:25:33.563Z,4.37
2023-03-16T18:28:36.904Z,4.53
2023-03-16T18:31:45.937Z,3.60
2023-03-16T18:34:51.811Z,3.65
2023-03-16T18:37:55.409Z,4.07
2023-03-16T18:41:00.755Z,4.20
2023-03-16T18:44:26.014Z,4.72
2023-03-16T18:47:32.918Z,5.75
2023-03-16T18:50:36.407Z,5.30
2023-03-16T18:53:39.525Z,5.97
2023-03-16T18:56:42.482Z,5.93
2023-03-16T18:59:46.744Z,6.35
2023-03-16T19:03:21.658Z,5.35
2023-03-16T19:06:29.722Z,4.80
2023-03-16T19:09:32.748Z,4.95
2023-03-16T19:12:37.515Z,4.68
2023-03-16T19:15:54.953Z,4.10
2023-03-16T19:18:58.363Z,4.80
2023-03-16T19:22:15.807Z,4.78
2023-03-16T19:25:29.376Z,5.45
2023-03-16T19:28:39.451Z,4.57
2023-03-16T19:32:22.557Z,4.72
2023-03-16T19:35:48.404Z,5.95
2023-03-16T19:38:59.037Z,4.78
2023-03-16T19:42:02.374Z,6.15
2023-03-16T19:45:07.569Z,6.00
2023-03-16T19:48:15.111Z,5.35
2023-03-16T19:51:18.579Z,4.45
2023-03-16T19:55:01.450Z,4.07
2023-03-16T19:58:19.773Z,3.58
2023-03-16T20:01:30.261Z,4.50
2023-03-16T20:04:51.866Z,3.97
2023-03-16T20:08:23.014Z,5.25
2023-03-16T20:11:48.035Z,4.80
2023-03-16T20:14:57.509Z,4.68
2023-03-16T20:18:00.811Z,5.45
2023-03-16T20:21:04.594Z,5.30
2023-03-16T20:24:28.946Z,5.85
2023-03-16T20:27:32.732Z,5.05
2023-03-16T20:30:36.109Z,5.30
2023-03-16T20:33:52.161Z,4.82
2023-03-16T20:37:24.025Z,4.43
2023-03-16T20:40:50.402Z,5.10
2023-03-16T20:43:55.882Z,5.68
2023-03-16T20:47:17.701Z,4.80
2023-03-16T20:50:33.997Z,4.87
2023-03-16T20:53:37.883Z,5.35
2023-03-16T20:56:41.365Z,4.60
2023-03-16T21:00:20.595Z,5.60
2023-03-16T21:03:48.681Z,5.00
2023-03-16T21:06:52.497Z,5.10
2023-03-16T21:10:35.772Z,4.55
2023-03-16T21:13:43.929Z,5.28
2023-03-16T21:17:36.446Z,4.97
2023-03-16T21:20:40.149Z,4.45
2023-03-16T21:23:46.671Z,4.35
2023-03-16T21:26:54.008Z,4.65
2023-03-16T21:30:00.862Z,5.35
2023-03-16T21:33:31.950Z,5.70
2023-03-16T21:36:44.637Z,5.65
2023-03-16T21:40:00.126Z,6.40
2023-03-16T21:43:05.305Z,5.12
2023-03-16T21:46:23.282Z,5.05
2023-03-16T21:49:35.022Z,4.57
2023-03-16T21:52:39.986Z,5.65
2023-03-16T21:56:03.502Z,4.35
2023-03-16T21:59:06.820Z,4.78
2023-03-16T22:02:23.183Z,5.12
2023-03-16T22:05:32.576Z,4.60
2023-03-16T22:08:35.857Z,4.60
2023-03-16T22:11:41.356Z,5.35
2023-03-16T22:14:50.229Z,4.15
2023-03-16T22:18:35.938Z,4.78
2023-03-16T22:21:59.085Z,4.50
2023-03-16T22:25:02.643Z,5.28
2023-03-16T22:28:12.657Z,4.80
2023-03-16T22:31:41.366Z,5.57
2023-03-16T22:34:46.078Z,5.20
2023-03-16T22:37:49.285Z,4.47
2023-03-16T22:40:59.720Z,4.22
2023-03-16T22:44:04.869Z,5.57
2023-03-16T22:47:23.482Z,5.20
2023-03-16T22:50:49.339Z,4.28
2023-03-16T22:54:18.058Z,5.60
2023-03-16T22:57:21.696Z,4.60
2023-03-16T23:00:45.513Z,4.97
2023-03-16T23:03:51.085Z,4.62
2023-03-16T23:06:54.359Z,4.50
2023-03-16T23:09:57.960Z,4.18
2023-03-16T23:13:00.876Z,4.35
2023-03-16T23:16:04.156Z,4.30
2023-03-16T23:19:29.911Z,4.18
2023-03-16T23:22:33.124Z,4.75
2023-03-16T23:25:37.072Z,5.30
2023-03-16T23:28:41.814Z,5.07
2023-03-16T23:31:44.555Z,4.80
2023-03-16T23:34:47.604Z,4.35
2023-03-16T23:37:52.506Z,3.87
2023-03-16T23:40:55.798Z,4.03
2023-03-16T23:43:59.291Z,4.80
2023-03-16T23:47:03.088Z,4.32
2023-03-16T23:50:07.025Z,4.53
2023-03-16T23:53:14.897Z,4.25
2023-03-16T23:56:18.080Z,4.18
2023-03-16T23:59:23.469Z,3.92
